Time;durP1;ratioP1;P1;durP2;ratioP2;P2;SDS_P1;SDS_P2;PMS_P1;PMS_P2;Temp;Humidity;BMP_temperature;BMP_pressure;BME280_temperature;BME280_humidity;BME280_pressure;Samples;Min_cycle;Max_cycle;Signal;HPM_P1;HPM_P2
2021/05/27 00:00:07;;;;;;;18.08;13.02;;;;;;;16.76;73.67;93808.84;5088324;28;20024;-71
2021/05/27 00:02:32;;;;;;;18.10;13.73;;;;;;;16.75;73.85;93810.78;5089393;28;20024;-71
2021/05/27 00:04:58;;;;;;;20.42;13.57;;;;;;;16.71;74.15;93799.16;5088269;28;20501;-71
2021/05/27 00:07:23;;;;;;;17.55;13.20;;;;;;;16.73;74.09;93799.56;5089101;28;20028;-71
2021/05/27 00:09:48;;;;;;;19.95;12.85;;;;;;;16.73;73.83;93802.28;5092367;28;20570;-71
2021/05/27 00:12:14;;;;;;;17.50;12.65;;;;;;;16.73;73.77;93801.47;5092763;28;20032;-71
2021/05/27 00:14:39;;;;;;;15.40;12.40;;;;;;;16.73;73.60;93796.09;5093012;28;20027;-71
2021/05/27 00:17:05;;;;;;;18.63;12.65;;;;;;;16.75;73.59;93793.81;5091744;28;20109;-71
2021/05/27 00:19:30;;;;;;;25.20;22.65;;;;;;;16.76;73.51;93800.78;5091619;28;20026;-71
2021/05/27 00:21:56;;;;;;;17.88;13.35;;;;;;;16.70;73.93;93789.50;5091714;28;20418;-71
2021/05/27 00:24:21;;;;;;;16.70;12.65;;;;;;;16.75;73.75;93791.94;5092655;28;20041;-71
2021/05/27 00:26:46;;;;;;;16.70;12.70;;;;;;;16.77;73.80;93792.34;5091399;28;20020;-71
2021/05/27 00:29:12;;;;;;;20.10;13.13;;;;;;;16.79;73.64;93795.47;5091285;28;20028;-72
2021/05/27 00:31:37;;;;;;;17.60;13.65;;;;;;;16.74;73.82;93792.28;5092691;28;20199;-71
2021/05/27 00:34:03;;;;;;;18.77;13.48;;;;;;;16.75;73.76;93793.81;5091379;28;20118;-71
2021/05/27 00:36:29;;;;;;;17.05;13.70;;;;;;;16.77;73.79;93791.56;5091111;28;20039;-72
2021/05/27 00:38:55;;;;;;;18.58;13.55;;;;;;;16.75;73.47;93793.81;5091260;28;20487;-71
2021/05/27 00:41:20;;;;;;;21.63;13.45;;;;;;;16.73;73.62;93791.50;5092217;28;20047;-71
2021/05/27 00:43:46;;;;;;;19.35;13.07;;;;;;;16.75;73.46;93788.44;5092509;28;20552;-71
2021/05/27 00:46:11;;;;;;;17.33;14.40;;;;;;;16.68;73.49;93793.69;5092571;28;20020;-70
2021/05/27 00:51:21;;;;;;;18.20;14.40;;;;;;;16.56;73.27;93800.75;5092524;28;20805;-71
2021/05/27 00:53:46;;;;;;;21.75;15.18;;;;;;;16.55;73.37;93801.13;5090948;28;20020;-71
2021/05/27 00:56:12;;;;;;;19.13;13.32;;;;;;;16.54;73.31;93813.00;5092294;28;20081;-71
2021/05/27 00:58:38;;;;;;;19.23;12.38;;;;;;;16.54;73.21;93811.06;5102895;28;20035;-71
2021/05/27 01:01:04;;;;;;;15.82;12.65;;;;;;;16.54;73.15;93810.31;5111118;28;20402;-72
2021/05/27 01:03:29;;;;;;;25.77;13.93;;;;;;;16.53;73.30;93788.00;5111006;28;20154;-71
2021/05/27 01:05:54;;;;;;;20.75;13.80;;;;;;;16.56;73.24;93789.97;5111007;28;20450;-71
2021/05/27 01:08:20;;;;;;;27.42;14.63;;;;;;;16.57;73.27;93794.25;5111194;28;20483;-71
2021/05/27 01:10:45;;;;;;;20.25;13.73;;;;;;;16.57;73.85;93794.25;5104520;28;20031;-71
2021/05/27 01:13:11;;;;;;;18.70;13.50;;;;;;;16.50;73.68;93791.38;5090693;28;20020;-71
2021/05/27 01:15:38;;;;;;;19.05;14.57;;;;;;;16.50;73.82;93798.69;5090254;28;20031;-72
2021/05/27 01:18:13;;;;;;;27.35;15.95;;;;;;;16.43;74.57;93788.56;5091641;28;20024;-71
2021/05/27 01:20:41;;;;;;;26.13;16.23;;;;;;;16.43;75.01;93789.34;5089897;28;20031;-71
2021/05/27 01:23:09;;;;;;;17.70;13.50;;;;;;;16.43;75.17;93783.19;5091691;28;20148;-71
2021/05/27 01:25:35;;;;;;;19.08;15.38;;;;;;;16.41;75.29;93772.75;5091557;28;20049;-72
2021/05/27 01:28:01;;;;;;;19.50;14.88;;;;;;;16.44;75.40;93761.31;5091834;28;20100;-71
2021/05/27 01:30:26;;;;;;;17.30;13.98;;;;;;;16.49;75.43;93767.53;5091625;28;20028;-71
2021/05/27 01:32:52;;;;;;;25.15;15.65;;;;;;;16.47;75.41;93757.13;5090060;28;20087;-71
2021/05/27 01:35:20;;;;;;;19.77;15.38;;;;;;;16.51;75.20;93760.69;5091536;28;20024;-71
2021/05/27 01:37:46;;;;;;;22.60;15.95;;;;;;;16.55;75.02;93764.22;5091067;28;20038;-71
2021/05/27 01:40:14;;;;;;;20.95;15.25;;;;;;;16.56;74.90;93762.31;5090138;28;20020;-71
2021/05/27 01:42:39;;;;;;;29.35;15.98;;;;;;;16.53;74.73;93761.09;5089877;28;20028;-71
2021/05/27 01:45:06;;;;;;;20.83;16.05;;;;;;;16.52;74.63;93748.78;5091485;28;20027;-71
2021/05/27 01:47:31;;;;;;;23.17;16.35;;;;;;;16.50;74.59;93745.66;5090125;28;20106;-71
2021/05/27 01:49:57;;;;;;;24.27;15.70;;;;;;;16.52;74.79;93754.16;5090706;28;20127;-71
2021/05/27 01:52:22;;;;;;;21.00;15.52;;;;;;;16.51;74.66;93752.59;5106151;28;20036;-72
2021/05/27 01:54:48;;;;;;;22.52;16.65;;;;;;;16.52;74.67;93756.84;5109950;28;20032;-71
2021/05/27 01:57:13;;;;;;;27.50;16.60;;;;;;;16.54;74.35;93757.25;5110123;28;20032;-72
2021/05/27 01:59:39;;;;;;;22.25;15.63;;;;;;;16.51;74.49;93749.91;5109827;28;20027;-72
2021/05/27 02:02:04;;;;;;;20.65;16.63;;;;;;;16.52;74.42;93751.47;5111500;28;20024;-71
2021/05/27 02:04:30;;;;;;;21.40;16.80;;;;;;;16.52;74.46;93756.84;5111612;28;22088;-71
2021/05/27 02:06:55;;;;;;;27.58;17.40;;;;;;;16.52;74.54;93758.75;5109819;28;20142;-71
2021/05/27 02:09:20;;;;;;;26.08;18.20;;;;;;;16.50;74.82;93750.25;5111147;28;20032;-71
2021/05/27 02:11:48;;;;;;;26.92;18.25;;;;;;;16.45;74.66;93759.41;5109515;28;20110;-71
2021/05/27 02:14:15;;;;;;;30.35;20.30;;;;;;;16.39;74.97;93758.13;5109706;28;20119;-71
2021/05/27 02:16:42;;;;;;;22.70;18.63;;;;;;;16.38;75.06;93764.59;5109780;28;20395;-71
2021/05/27 02:19:09;;;;;;;24.70;18.70;;;;;;;16.36;75.63;93773.03;5110736;28;20020;-71
2021/05/27 02:21:35;;;;;;;29.40;21.05;;;;;;;16.33;75.54;93762.22;5111002;28;20020;-71
2021/05/27 02:24:02;;;;;;;26.38;19.13;;;;;;;16.30;75.86;93779.03;5110720;28;20394;-71
2021/05/27 02:26:28;;;;;;;29.17;20.95;;;;;;;16.30;76.09;93762.91;5110918;28;20093;-71
2021/05/27 02:28:54;;;;;;;30.48;21.15;;;;;;;16.30;76.01;93768.28;5110579;28;20068;-71
2021/05/27 02:31:21;;;;;;;31.52;21.77;;;;;;;16.33;76.00;93765.66;5108987;28;20031;-71
2021/05/27 02:33:47;;;;;;;30.65;20.65;;;;;;;16.35;75.90;93762.63;5109300;28;20031;-71
2021/05/27 02:36:12;;;;;;;29.48;21.00;;;;;;;16.36;75.85;93770.34;5110325;28;20027;-71
2021/05/27 02:38:38;;;;;;;26.08;20.85;;;;;;;16.33;76.01;93770.28;5111071;28;20073;-71
2021/05/27 02:41:05;;;;;;;27.40;21.65;;;;;;;16.33;76.23;93770.28;5099860;28;20032;-70
2021/05/27 02:43:32;;;;;;;31.65;21.33;;;;;;;16.37;76.00;93765.75;5089145;28;20119;-71
2021/05/27 02:46:01;;;;;;;32.03;21.77;;;;;;;16.34;75.96;93767.22;5090478;28;20023;-70
2021/05/27 02:48:28;;;;;;;30.55;19.85;;;;;;;16.38;76.17;93770.00;5089161;28;20123;-70
2021/05/27 02:50:55;;;;;;;25.13;20.77;;;;;;;16.38;76.03;93772.69;5090404;28;20393;-71
2021/05/27 02:53:20;;;;;;;26.17;19.42;;;;;;;16.38;75.94;93764.59;5090159;28;20046;-72
2021/05/27 02:55:46;;;;;;;27.40;19.70;;;;;;;16.41;75.96;93763.91;5088968;28;20020;-70
2021/05/27 02:58:11;;;;;;;28.92;19.08;;;;;;;16.41;75.96;93762.00;5088627;28;20038;-71
2021/05/27 03:00:37;;;;;;;32.90;18.83;;;;;;;16.44;75.96;93763.19;5090101;28;20024;-71
2021/05/27 03:03:03;;;;;;;26.77;18.58;;;;;;;16.46;75.85;93766.31;5090181;28;20024;-71
2021/05/27 03:05:28;;;;;;;23.25;19.23;;;;;;;16.47;75.94;93770.59;5088502;28;20020;-71
2021/05/27 03:07:54;;;;;;;25.52;19.35;;;;;;;16.42;76.22;93763.56;5103543;28;20016;-71
2021/05/27 03:10:19;;;;;;;27.42;19.67;;;;;;;16.47;76.41;93765.19;5110056;28;20483;-71
2021/05/27 03:12:45;;;;;;;26.60;18.95;;;;;;;16.48;76.21;93768.66;5109245;28;20019;-71
2021/05/27 03:15:10;;;;;;;26.48;17.63;;;;;;;16.48;75.97;93768.66;5110284;28;20069;-71
2021/05/27 03:17:36;;;;;;;29.10;20.58;;;;;;;16.52;76.19;93769.53;5110317;28;20486;-71
2021/05/27 03:20:03;;;;;;;26.88;19.75;;;;;;;16.56;76.10;93771.16;5108906;28;20023;-71
2021/05/27 03:22:31;;;;;;;35.00;19.90;;;;;;;16.59;75.83;93767.00;5109915;28;20031;-71
2021/05/27 03:24:56;;;;;;;23.92;17.63;;;;;;;16.59;75.92;93775.84;5110274;28;20494;-71
2021/05/27 03:27:22;;;;;;;26.50;17.83;;;;;;;16.64;75.67;93778.22;5108425;28;20119;-72
2021/05/27 03:29:47;;;;;;;25.35;17.92;;;;;;;16.69;75.79;93779.88;5108724;28;20023;-71
2021/05/27 03:32:13;;;;;;;27.73;20.33;;;;;;;16.74;75.80;93792.28;5108781;28;20059;-71
2021/05/27 03:34:38;;;;;;;28.85;21.30;;;;;;;16.79;75.55;93791.97;5108628;28;20471;-71
2021/05/27 03:37:04;;;;;;;30.38;21.77;;;;;;;16.83;75.41;93796.34;5108657;28;20022;-72
2021/05/27 03:39:29;;;;;;;29.98;20.17;;;;;;;16.89;75.34;93798.75;5109675;28;20114;-71
2021/05/27 03:41:54;;;;;;;25.40;19.00;;;;;;;16.90;75.65;93790.31;5108558;28;20027;-71
2021/05/27 03:44:20;;;;;;;21.50;15.90;;;;;;;16.91;75.25;93786.47;5112723;28;20200;-71
2021/05/27 03:46:45;;;;;;;18.73;14.57;;;;;;;17.00;75.40;93795.13;5112145;28;20031;-71
2021/05/27 03:49:11;;;;;;;21.17;14.45;;;;;;;17.04;75.13;93784.44;5113602;28;20067;-71
2021/05/27 03:51:37;;;;;;;23.63;13.70;;;;;;;17.08;74.75;93787.22;5112135;28;20073;-71
2021/05/27 03:54:04;;;;;;;20.08;14.38;;;;;;;17.16;74.56;93780.81;5112440;28;20130;-71
2021/05/27 03:56:29;;;;;;;25.27;15.10;;;;;;;17.19;74.71;93788.19;5112093;28;20502;-71
2021/05/27 04:01:39;;;;;;;21.52;14.77;;;;;;;17.34;74.11;93776.53;5092921;28;20034;-71
2021/05/27 04:07:10;;;;;;;21.45;13.27;;;;;;;17.50;73.29;93776.41;5092803;28;20132;-71
2021/05/27 04:09:36;;;;;;;19.63;14.38;;;;;;;17.55;73.38;93781.53;5092817;28;20022;-71
2021/05/27 04:15:20;;;;;;;27.15;17.13;;;;;;;17.69;72.97;93786.38;5092982;28;20031;-71
2021/05/27 04:17:31;;;;;;;21.13;16.50;;;;;;;17.76;72.26;93783.03;5092565;28;20038;-71
2021/05/27 04:19:57;;;;;;;23.17;16.42;;;;;;;17.83;72.47;93781.25;5092783;28;20044;-71
2021/05/27 04:22:22;;;;;;;25.75;16.17;;;;;;;17.86;72.20;93792.47;5092600;28;20108;-71
2021/05/27 04:24:48;;;;;;;24.85;13.73;;;;;;;17.91;71.81;93797.53;5092580;28;20023;-71
2021/05/27 04:27:13;;;;;;;24.33;13.48;;;;;;;17.93;71.65;93793.34;5091438;28;20016;-71
2021/05/27 04:29:38;;;;;;;14.40;12.23;;;;;;;17.96;71.14;93797.25;5091377;28;20107;-71
2021/05/27 04:32:04;;;;;;;16.65;12.90;;;;;;;18.01;71.23;93797.72;5092538;28;20494;-71
2021/05/27 04:34:29;;;;;;;18.45;12.77;;;;;;;18.08;70.89;93798.97;5092526;28;20055;-71
2021/05/27 04:36:55;;;;;;;19.92;11.90;;;;;;;18.10;70.43;93805.56;5092081;28;20031;-71
2021/05/27 04:39:20;;;;;;;21.17;12.95;;;;;;;18.12;70.21;93802.50;5101341;28;20475;-79
2021/05/27 04:41:45;;;;;;;15.57;12.63;;;;;;;18.16;70.65;93801.41;5111558;28;20028;-78
2021/05/27 04:44:11;;;;;;;19.70;15.18;;;;;;;18.26;70.68;93802.72;5099680;28;20024;-78
2021/05/27 04:46:36;;;;;;;27.48;15.57;;;;;;;18.33;70.56;93799.34;5097739;28;20078;-78
2021/05/27 04:49:02;;;;;;;24.10;13.57;;;;;;;18.38;70.15;93799.81;5102346;28;20036;-78
2021/05/27 04:51:27;;;;;;;17.00;12.95;;;;;;;18.34;69.50;93809.78;5097749;28;20032;-78
2021/05/27 04:53:52;;;;;;;22.13;13.32;;;;;;;18.39;69.36;93805.97;5098478;28;20023;-77
2021/05/27 04:56:18;;;;;;;22.67;13.30;;;;;;;18.45;69.55;93807.22;5111390;28;20034;-78
2021/05/27 04:58:43;;;;;;;23.30;14.18;;;;;;;18.53;69.28;93814.28;5095795;28;20084;-78
2021/05/27 05:01:09;;;;;;;23.45;15.18;;;;;;;18.64;69.51;93809.81;5106763;28;20083;-77
2021/05/27 05:03:34;;;;;;;21.27;15.23;;;;;;;18.72;69.50;93810.66;5105664;28;20024;-77
2021/05/27 05:05:59;;;;;;;24.45;14.90;;;;;;;18.84;69.16;93807.00;5090373;28;20200;-77
2021/05/27 05:08:25;;;;;;;26.35;15.07;;;;;;;18.88;67.95;93810.53;5100605;28;20537;-77
2021/05/27 05:10:50;;;;;;;27.02;15.13;;;;;;;18.89;68.07;93806.69;5090383;28;20479;-78
2021/05/27 05:13:16;;;;;;;31.15;15.68;;;;;;;18.97;68.12;93805.63;5090511;28;20028;-77
2021/05/27 05:15:42;;;;;;;26.30;14.82;;;;;;;19.06;68.32;93807.28;5106465;28;20156;-77
2021/05/27 05:18:12;;;;;;;26.25;14.00;;;;;;;19.12;67.71;93803.09;5102361;28;20024;-77
2021/05/27 05:20:39;;;;;;;22.25;15.23;;;;;;;19.14;67.02;93796.19;5090332;28;20422;-78
2021/05/27 05:23:05;;;;;;;30.80;15.90;;;;;;;19.19;66.72;93793.16;5108378;28;20047;-77
2021/05/27 05:25:33;;;;;;;23.85;14.55;;;;;;;19.26;66.36;93800.56;5108690;28;20027;-77
2021/05/27 05:27:59;;;;;;;31.55;16.67;;;;;;;19.32;65.65;93801.78;5111968;28;20034;-78
2021/05/27 05:30:26;;;;;;;26.10;16.20;;;;;;;19.39;65.49;93796.44;5111648;28;20027;-78
2021/05/27 05:32:52;;;;;;;23.33;16.23;;;;;;;19.47;64.22;93807.34;5105558;28;20031;-78
2021/05/27 05:35:19;;;;;;;30.73;16.30;;;;;;;19.51;63.85;93802.75;5091103;28;20023;-77
2021/05/27 05:37:45;;;;;;;24.85;16.20;;;;;;;19.53;64.28;93790.41;5103995;28;20463;-78
2021/05/27 05:40:12;;;;;;;27.65;18.30;;;;;;;19.62;64.19;93800.91;5100335;28;20033;-78
2021/05/27 05:42:39;;;;;;;23.60;15.07;;;;;;;19.73;64.07;93796.44;5106613;28;20028;-78
2021/05/27 05:45:06;;;;;;;30.10;16.75;;;;;;;19.75;62.54;93807.66;5089986;28;20028;-78
2021/05/27 05:47:32;;;;;;;20.65;14.85;;;;;;;19.80;62.26;93804.63;5095207;28;20096;-78
2021/05/27 05:49:57;;;;;;;26.60;17.40;;;;;;;19.84;62.03;93801.94;5111481;28;20072;-78
2021/05/27 05:52:23;;;;;;;35.15;15.13;;;;;;;19.93;62.15;93804.34;5104280;28;20027;-77
2021/05/27 05:54:48;;;;;;;25.83;15.50;;;;;;;19.96;61.87;93809.00;5110266;28;20084;-78
2021/05/27 05:57:14;;;;;;;35.10;16.38;;;;;;;20.04;61.61;93797.84;5110073;28;20027;-77
2021/05/27 05:59:39;;;;;;;35.42;16.13;;;;;;;20.16;61.26;93810.31;5106636;28;20024;-77
2021/05/27 06:02:05;;;;;;;31.80;15.48;;;;;;;20.24;60.24;93809.22;5106244;28;20019;-77
2021/05/27 06:04:31;;;;;;;22.13;15.13;;;;;;;20.29;60.57;93807.31;5109371;28;20019;-78
2021/05/27 06:06:57;;;;;;;30.67;15.95;;;;;;;20.35;59.99;93800.41;5095571;28;20077;-80
2021/05/27 06:09:24;;;;;;;23.92;15.35;;;;;;;20.36;59.60;93801.97;5107620;28;20039;-80
2021/05/27 06:11:50;;;;;;;27.13;14.50;;;;;;;20.43;59.18;93791.16;5109775;28;20019;-78
2021/05/27 06:14:16;;;;;;;27.80;13.48;;;;;;;20.43;58.90;93802.00;5111101;28;20027;-80
2021/05/27 06:16:41;;;;;;;22.15;13.07;;;;;;;20.45;57.46;93802.41;5110806;28;20494;-80
2021/05/27 06:19:06;;;;;;;18.38;12.25;;;;;;;20.45;57.72;93805.09;5109276;28;20118;-78
2021/05/27 06:21:32;;;;;;;23.63;12.45;;;;;;;20.52;57.85;93790.84;5109749;28;20106;-79
2021/05/27 06:23:57;;;;;;;23.80;12.05;;;;;;;20.57;57.28;93791.25;5099080;28;20028;-79
2021/05/27 06:26:23;;;;;;;23.10;12.75;;;;;;;20.61;57.15;93792.09;5109339;28;20029;-82
2021/05/27 06:28:48;;;;;;;19.67;11.88;;;;;;;20.65;56.89;93789.41;5091009;28;20392;-84
2021/05/27 06:31:14;;;;;;;17.42;11.10;;;;;;;20.70;56.13;93794.47;5096506;28;20467;-80
2021/05/27 06:33:39;;;;;;;18.23;9.68;;;;;;;20.76;56.35;93792.94;5101911;28;20475;-76
2021/05/27 06:36:06;;;;;;;17.27;9.70;;;;;;;20.78;56.43;93790.63;5089890;28;20012;-88
2021/05/27 06:38:31;;;;;;;16.35;8.70;;;;;;;20.83;56.68;93781.38;5088627;28;20092;-80
2021/05/27 06:40:57;;;;;;;14.18;9.80;;;;;;;20.92;57.07;93779.06;5089667;28;20103;-80
2021/05/27 06:43:22;;;;;;;17.55;9.55;;;;;;;20.99;55.61;93784.53;5103895;28;20624;-80
2021/05/27 06:45:48;;;;;;;16.92;10.65;;;;;;;21.03;54.68;93777.19;5094515;28;20159;-76
2021/05/27 06:48:14;;;;;;;18.95;10.63;;;;;;;21.08;55.03;93780.69;5089595;28;20051;-78
2021/05/27 06:50:40;;;;;;;21.23;9.60;;;;;;;21.09;55.27;93779.56;5096989;28;20035;-76
2021/05/27 06:53:12;;;;;;;17.17;11.43;;;;;;;21.11;55.63;93779.94;5088826;28;20024;-77
2021/05/27 06:55:39;;;;;;;18.70;12.68;;;;;;;21.17;55.78;93770.28;5087902;28;20452;-75
2021/05/27 06:58:05;;;;;;;26.33;13.68;;;;;;;21.26;55.63;93770.69;5089538;28;20107;-82
2021/05/27 07:00:31;;;;;;;22.75;14.02;;;;;;;21.32;54.99;93768.38;5089562;28;20024;-80
2021/05/27 07:02:57;;;;;;;25.05;15.27;;;;;;;21.37;56.52;93766.09;5100790;28;20475;-79
2021/05/27 07:05:23;;;;;;;23.95;15.15;;;;;;;21.46;56.70;93765.75;5088149;28;20093;-79
2021/05/27 07:07:49;;;;;;;23.05;15.88;;;;;;;21.56;55.86;93772.34;5103912;28;20050;-79
2021/05/27 07:10:17;;;;;;;24.83;16.23;;;;;;;21.64;54.57;93766.53;5101294;28;20031;-80
2021/05/27 07:12:54;;;;;;;26.40;14.00;;;;;;;21.72;55.14;93775.47;5092674;28;20028;-80
2021/05/27 07:15:22;;;;;;;23.85;15.02;;;;;;;21.77;54.95;93768.88;5096589;28;20031;-79
2021/05/27 07:17:51;;;;;;;29.67;14.68;;;;;;;21.86;54.50;93768.50;5090457;28;20085;-75
2021/05/27 07:20:18;;;;;;;24.70;15.10;;;;;;;21.97;54.57;93763.84;5093533;28;20044;-74
2021/05/27 07:22:44;;;;;;;22.52;14.73;;;;;;;22.01;54.72;93765.41;5109270;28;20070;-75
2021/05/27 07:25:11;;;;;;;17.95;13.45;;;;;;;21.95;54.19;93766.94;5098795;28;20048;-73
2021/05/27 07:27:36;;;;;;;23.35;13.18;;;;;;;21.97;54.28;93767.34;5100154;28;20036;-74
2021/05/27 07:30:04;;;;;;;31.35;14.13;;;;;;;22.02;53.76;93766.97;5113505;28;20027;-73
2021/05/27 07:32:30;;;;;;;19.25;13.55;;;;;;;22.09;53.60;93752.59;5103984;28;20475;-74
2021/05/27 07:34:55;;;;;;;19.83;13.52;;;;;;;22.11;53.23;93755.72;5107029;28;20058;-73
2021/05/27 07:37:20;;;;;;;20.98;14.95;;;;;;;22.12;53.56;93756.47;5114412;28;20486;-74
2021/05/27 07:39:47;;;;;;;23.17;13.75;;;;;;;22.18;53.34;93755.69;5113710;28;20027;-73
2021/05/27 07:42:13;;;;;;;21.15;12.93;;;;;;;22.19;52.81;93754.53;5108376;28;20105;-73
2021/05/27 07:44:38;;;;;;;25.00;13.68;;;;;;;22.26;53.00;93764.63;5098783;28;20032;-73
2021/05/27 07:47:04;;;;;;;23.80;13.32;;;;;;;22.24;52.28;93750.69;5093527;28;20027;-72
2021/05/27 07:49:30;;;;;;;16.05;11.35;;;;;;;22.32;51.85;93756.88;5092857;28;20201;-73
2021/05/27 07:51:56;;;;;;;20.42;11.38;;;;;;;22.33;51.88;93750.31;5093074;28;20110;-72
2021/05/27 07:54:23;;;;;;;15.48;10.60;;;;;;;22.21;51.87;93756.88;5107576;28;20110;-73
2021/05/27 07:56:49;;;;;;;18.42;10.45;;;;;;;22.22;52.14;93761.88;5110639;28;20495;-71
2021/05/27 07:59:14;;;;;;;19.45;9.13;;;;;;;22.33;51.36;93756.50;5092934;28;20118;-71
2021/05/27 08:01:41;;;;;;;18.55;8.90;;;;;;;22.38;50.67;93760.75;5096253;28;20478;-72
2021/05/27 08:04:06;;;;;;;15.88;8.50;;;;;;;22.45;51.41;93763.47;5092914;28;20032;-72
2021/05/27 08:06:32;;;;;;;14.93;9.95;;;;;;;22.50;50.62;93757.63;5093059;28;20031;-72
2021/05/27 08:08:57;;;;;;;13.50;8.73;;;;;;;22.60;50.85;93756.06;5092683;28;20161;-72
2021/05/27 08:11:22;;;;;;;13.45;8.35;;;;;;;22.70;50.56;93754.47;5091280;28;20096;-72
2021/05/27 08:13:48;;;;;;;12.60;7.38;;;;;;;22.77;49.92;93754.44;5092254;28;20479;-71
2021/05/27 08:16:14;;;;;;;14.35;8.65;;;;;;;22.79;50.30;93752.09;5092701;28;20024;-72
2021/05/27 08:18:40;;;;;;;17.20;8.68;;;;;;;22.80;49.49;93759.88;5091263;28;20107;-73
2021/05/27 08:21:07;;;;;;;13.55;7.75;;;;;;;22.90;49.13;93743.91;5092269;28;20035;-72
2021/05/27 08:23:33;;;;;;;18.92;7.35;;;;;;;22.98;49.42;93740.78;5091141;28;20103;-72
2021/05/27 08:25:58;;;;;;;13.52;7.25;;;;;;;23.09;49.44;93738.03;5092442;28;20628;-72
2021/05/27 08:28:24;;;;;;;11.25;7.07;;;;;;;23.20;49.39;93743.41;5090674;28;20024;-72
2021/05/27 08:30:49;;;;;;;19.60;7.35;;;;;;;23.27;49.17;93742.63;5091379;28;20031;-75
2021/05/27 08:33:15;;;;;;;10.13;6.95;;;;;;;23.24;48.84;93736.03;5091999;28;20507;-76
2021/05/27 08:35:40;;;;;;;8.68;6.18;;;;;;;23.25;48.27;93718.56;5092314;28;20081;-78
2021/05/27 08:38:06;;;;;;;15.73;6.55;;;;;;;23.30;49.36;93725.50;5092529;28;20028;-76
2021/05/27 08:40:31;;;;;;;8.77;6.20;;;;;;;23.36;49.55;93719.25;5092085;28;20016;-76
2021/05/27 08:42:58;;;;;;;11.15;7.00;;;;;;;23.38;49.04;93725.06;5092025;28;20099;-76
2021/05/27 08:45:34;;;;;;;13.98;6.25;;;;;;;23.40;47.71;93730.13;5092072;28;20024;-76
2021/05/27 08:47:59;;;;;;;10.52;6.15;;;;;;;23.42;47.79;93723.09;5091779;28;20046;-78
2021/05/27 08:50:41;;;;;;;11.25;6.13;;;;;;;23.49;47.46;93716.84;5091672;28;20541;-77
2021/05/27 08:53:06;;;;;;;11.43;6.00;;;;;;;23.51;47.83;93711.00;5090315;28;20108;-77
2021/05/27 08:55:33;;;;;;;11.25;6.38;;;;;;;23.55;47.39;93714.47;5110886;28;20023;-76
2021/05/27 08:57:58;;;;;;;10.00;6.72;;;;;;;23.68;49.50;93720.22;5108267;28;20051;-82
2021/05/27 09:00:24;;;;;;;14.77;6.55;;;;;;;23.72;48.74;93716.28;5106346;28;20051;-73
2021/05/27 09:03:00;;;;;;;14.20;7.38;;;;;;;23.79;47.75;93704.59;5112296;28;20034;-76
2021/05/27 09:05:31;;;;;;;12.40;6.25;;;;;;;23.79;47.32;93705.41;5112062;28;20024;-76
2021/05/27 09:07:56;;;;;;;8.85;6.70;;;;;;;23.78;47.15;93705.78;5110658;28;20046;-76
2021/05/27 09:10:47;;;;;;;11.93;6.47;;;;;;;23.76;46.94;93714.31;5112176;28;20032;-76
2021/05/27 09:13:18;;;;;;;10.35;6.22;;;;;;;23.80;47.66;93698.00;5111998;28;20107;-76
2021/05/27 09:15:46;;;;;;;12.05;6.07;;;;;;;23.90;47.21;93701.81;5111892;28;20448;-74
2021/05/27 09:18:12;;;;;;;11.73;6.05;;;;;;;23.97;47.36;93701.75;5111833;28;20112;-76
2021/05/27 09:20:38;;;;;;;13.85;6.22;;;;;;;24.07;46.88;93703.59;5110328;28;20023;-74
2021/05/27 09:23:14;;;;;;;9.30;5.43;;;;;;;24.19;46.70;93703.09;5111677;28;20080;-74
2021/05/27 09:25:44;;;;;;;8.38;6.05;;;;;;;24.26;46.60;93691.34;5110253;28;20411;-75
2021/05/27 09:28:17;;;;;;;9.60;5.47;;;;;;;24.34;46.16;93697.50;5110466;28;20019;-76
2021/05/27 09:30:46;;;;;;;10.05;6.85;;;;;;;24.35;46.62;93688.16;5111283;28;20074;-74
2021/05/27 09:33:12;;;;;;;13.43;6.32;;;;;;;24.44;46.49;93688.44;5106626;28;20560;-77
2021/05/27 09:35:38;;;;;;;17.80;7.35;;;;;;;24.62;47.63;93686.31;5089822;28;20032;-75
2021/05/27 09:38:03;;;;;;;11.88;6.55;;;;;;;24.70;46.83;93675.34;5091029;28;20085;-77
2021/05/27 09:40:43;;;;;;;9.77;6.18;;;;;;;24.81;46.34;93667.81;5090945;28;20024;-74
2021/05/27 09:43:12;;;;;;;13.00;6.18;;;;;;;24.92;45.35;93665.72;5090936;28;20028;-77
2021/05/27 09:45:39;;;;;;;9.77;6.18;;;;;;;24.98;44.65;93669.53;5088229;28;20032;-75
2021/05/27 09:48:23;;;;;;;12.93;6.45;;;;;;;24.92;44.38;93657.56;5090378;28;20056;-75
2021/05/27 09:50:49;;;;;;;10.73;6.25;;;;;;;24.92;44.06;93662.25;5090715;28;20036;-75
2021/05/27 09:53:17;;;;;;;19.23;5.95;;;;;;;24.88;44.75;93669.69;5090686;28;20077;-75
2021/05/27 09:55:44;;;;;;;10.43;6.13;;;;;;;24.91;45.77;93663.41;5090745;28;20030;-77
2021/05/27 09:58:11;;;;;;;14.10;6.30;;;;;;;24.99;44.70;93665.66;5102088;28;20089;-77
2021/05/27 10:00:38;;;;;;;7.95;5.28;;;;;;;25.05;43.81;93673.34;5104300;28;20047;-77
2021/05/27 10:03:34;;;;;;;13.20;6.82;;;;;;;25.20;45.41;93663.81;5109615;28;20038;-77
2021/05/27 10:06:03;;;;;;;14.73;5.75;;;;;;;25.37;45.74;93667.50;5096770;28;20094;-77
2021/05/27 10:08:30;;;;;;;10.80;5.38;;;;;;;25.47;45.63;93646.69;5111242;28;20102;-76
2021/05/27 10:10:56;;;;;;;13.00;5.63;;;;;;;25.58;44.89;93650.00;5101425;28;20022;-76
2021/05/27 10:13:27;;;;;;;24.55;4.95;;;;;;;25.62;42.04;93642.53;5105813;28;20543;-76
2021/05/27 10:15:53;;;;;;;16.13;4.90;;;;;;;25.67;40.15;93642.09;5110638;28;20019;-76
2021/05/27 10:18:21;;;;;;;9.27;4.57;;;;;;;25.74;39.77;93641.19;5110556;28;20100;-76
2021/05/27 10:20:48;;;;;;;8.80;4.90;;;;;;;25.76;39.32;93650.50;5094819;28;20059;-76
2021/05/27 10:23:16;;;;;;;8.98;4.57;;;;;;;25.76;39.30;93645.03;5088943;28;20034;-76
2021/05/27 10:25:42;;;;;;;8.43;4.38;;;;;;;25.72;37.85;93633.41;5093828;28;20106;-76
2021/05/27 10:28:10;;;;;;;10.85;3.83;;;;;;;25.75;37.94;93643.50;5104830;28;20099;-76
2021/05/27 10:30:42;;;;;;;11.00;3.83;;;;;;;25.77;38.09;93638.41;5098079;28;20466;-76
2021/05/27 10:33:16;;;;;;;9.38;4.43;;;;;;;25.89;38.17;93631.59;5108772;28;20024;-76
2021/05/27 10:35:45;;;;;;;12.77;4.70;;;;;;;25.89;37.62;93638.97;5110167;28;20505;-76
2021/05/27 10:38:11;;;;;;;11.93;4.60;;;;;;;25.89;38.37;93637.03;5107914;28;20102;-76
2021/05/27 10:40:38;;;;;;;11.52;5.22;;;;;;;25.97;37.89;93632.22;5088389;28;20076;-76
2021/05/27 10:43:10;;;;;;;10.20;4.15;;;;;;;25.93;37.92;93642.44;5089939;28;20023;-76
2021/05/27 10:46:10;;;;;;;9.73;3.95;;;;;;;25.78;37.80;93631.75;5089465;28;20060;-76
2021/05/27 10:48:44;;;;;;;11.23;4.97;;;;;;;25.63;38.83;93627.72;5097798;28;20413;-76
2021/05/27 10:51:23;;;;;;;10.57;5.28;;;;;;;25.52;39.30;93627.09;5110128;28;20050;-76
2021/05/27 10:53:50;;;;;;;9.38;5.30;;;;;;;25.46;40.23;93631.50;5089230;28;20024;-75
2021/05/27 10:56:37;;;;;;;11.35;4.95;;;;;;;25.41;40.86;93633.50;5089810;28;20032;-76
2021/05/27 10:59:08;;;;;;;9.70;4.90;;;;;;;25.35;41.03;93628.94;5104898;27;20422;-81
2021/05/27 11:01:36;;;;;;;12.95;5.28;;;;;;;25.33;41.01;93631.31;5108692;28;20019;-73
2021/05/27 11:04:04;;;;;;;14.77;4.90;;;;;;;25.30;40.24;93627.47;5109999;28;20027;-72
2021/05/27 11:06:32;;;;;;;12.18;4.38;;;;;;;25.36;40.32;93638.66;5109930;28;20027;-72
2021/05/27 11:09:07;;;;;;;12.90;4.68;;;;;;;25.41;40.10;93635.47;5108750;28;21089;-72
2021/05/27 11:11:48;;;;;;;7.68;3.80;;;;;;;25.50;40.41;93632.22;5109956;28;20023;-72
2021/05/27 11:14:23;;;;;;;11.30;3.92;;;;;;;25.55;40.54;93623.56;5109944;28;20141;-72
2021/05/27 11:17:01;;;;;;;8.32;4.28;;;;;;;25.50;40.03;93618.56;5108669;28;20027;-71
2021/05/27 11:22:35;;;;;;;8.68;3.67;;;;;;;25.48;41.50;93601.84;5109573;28;20510;-71
2021/05/27 11:27:35;;;;;;;9.25;4.10;;;;;;;25.43;41.78;93608.53;5110269;28;20071;-72
2021/05/27 11:30:30;;;;;;;6.13;4.63;;;;;;;25.33;41.88;93602.06;5109911;28;20063;-72
2021/05/27 11:33:03;;;;;;;6.15;4.43;;;;;;;25.35;42.07;93607.88;5110152;28;20027;-71
2021/05/27 11:35:37;;;;;;;9.25;4.35;;;;;;;25.42;41.86;93601.53;5103515;28;20031;-71